createdAt,value
2017-12-01T00:00:23.721Z,93.18
2017-12-01T00:01:26.866Z,93.21
2017-12-01T00:02:29.829Z,93.34
2017-12-01T00:03:32.967Z,93.47
2017-12-01T00:04:36.211Z,93.18
2017-12-01T00:05:39.328Z,92.88
2017-12-01T00:06:42.241Z,93.05
2017-12-01T00:07:45.106Z,93.59
2017-12-01T00:08:48.060Z,93.34
2017-12-01T00:09:50.942Z,93.37
2017-12-01T00:10:53.833Z,93.45
2017-12-01T00:11:57.078Z,93.38
2017-12-01T00:12:59.886Z,93.37
2017-12-01T00:14:02.653Z,92.90
2017-12-01T00:15:05.599Z,92.80
2017-12-01T00:16:08.763Z,92.70
2017-12-01T00:17:11.599Z,92.56
2017-12-01T00:18:14.931Z,92.66
2017-12-01T00:19:17.922Z,92.69
2017-12-01T00:20:20.830Z,92.60
2017-12-01T00:21:23.936Z,92.42
2017-12-01T00:22:26.917Z,92.48
2017-12-01T00:23:29.919Z,92.31
2017-12-01T00:24:33.629Z,92.47
2017-12-01T00:25:36.557Z,93.02
2017-12-01T00:26:39.667Z,93.39
2017-12-01T00:27:42.603Z,93.74
2017-12-01T00:28:45.597Z,93.83
2017-12-01T00:29:48.540Z,93.56
2017-12-01T00:30:52.279Z,93.22
2017-12-01T00:31:55.524Z,93.09
2017-12-01T00:32:58.442Z,92.59
2017-12-01T00:34:01.391Z,92.41
2017-12-01T00:35:04.327Z,92.86
2017-12-01T00:36:07.289Z,92.21
2017-12-01T00:37:10.542Z,91.68
2017-12-01T00:38:13.508Z,91.28
2017-12-01T00:39:16.400Z,91.45
2017-12-01T00:40:19.337Z,91.55
2017-12-01T00:41:22.300Z,91.25
2017-12-01T00:42:25.325Z,91.48
2017-12-01T00:43:28.599Z,91.82
2017-12-01T00:44:31.622Z,91.90
2017-12-01T00:45:34.859Z,91.43
2017-12-01T00:46:37.827Z,91.58
2017-12-01T00:47:40.790Z,91.54
2017-12-01T00:48:43.745Z,91.06
2017-12-01T00:49:46.989Z,91.31
2017-12-01T00:50:50.085Z,91.35
2017-12-01T00:51:53.302Z,91.78
2017-12-01T00:52:56.198Z,91.53
2017-12-01T00:53:59.275Z,91.59
2017-12-01T00:55:02.115Z,91.90
2017-12-01T00:56:05.233Z,92.22
2017-12-01T00:57:08.158Z,92.26
2017-12-01T00:58:11.062Z,92.25
2017-12-01T00:59:14.132Z,92.43
2017-12-01T01:00:17.113Z,92.01
2017-12-01T01:01:20.104Z,92.17
2017-12-01T01:02:23.360Z,92.24
2017-12-01T01:03:26.417Z,92.04
2017-12-01T01:04:29.570Z,92.01
2017-12-01T01:05:32.538Z,92.29
2017-12-01T01:06:35.959Z,92.49
2017-12-01T01:07:39.067Z,92.73
2017-12-01T01:08:42.587Z,92.38
2017-12-01T01:09:45.647Z,91.12
2017-12-01T01:10:48.527Z,90.70
2017-12-01T01:11:51.702Z,90.99
2017-12-01T01:12:54.598Z,90.90
2017-12-01T01:13:57.540Z,91.45
2017-12-01T01:15:00.485Z,91.33
2017-12-01T01:16:03.431Z,91.57
2017-12-01T01:17:06.361Z,91.91
2017-12-01T01:18:09.566Z,92.04
2017-12-01T01:19:12.508Z,92.28
2017-12-01T01:20:15.887Z,92.86
2017-12-01T01:21:18.813Z,92.38
2017-12-01T01:22:21.822Z,91.97
2017-12-01T01:23:24.767Z,91.70
2017-12-01T01:24:27.695Z,91.63
2017-12-01T01:25:30.663Z,91.97
2017-12-01T01:26:33.873Z,92.74
2017-12-01T01:27:36.794Z,92.43
2017-12-01T01:28:39.714Z,91.74
2017-12-01T01:29:42.641Z,91.48
2017-12-01T01:30:45.487Z,91.51
2017-12-01T01:31:48.342Z,92.53
2017-12-01T01:32:51.708Z,93.05
2017-12-01T01:33:54.759Z,92.82
2017-12-01T01:34:57.812Z,92.87
2017-12-01T01:36:00.639Z,93.48
2017-12-01T01:37:03.546Z,93.36
2017-12-01T01:38:06.396Z,93.10
2017-12-01T01:39:09.649Z,92.65
2017-12-01T01:40:12.539Z,92.55
2017-12-01T01:41:15.364Z,92.78
2017-12-01T01:42:18.178Z,92.53
2017-12-01T01:43:21.017Z,92.48
2017-12-01T01:44:23.855Z,92.67
2017-12-01T01:45:27.011Z,92.57
2017-12-01T01:46:29.867Z,92.51
2017-12-01T01:47:32.694Z,92.93
2017-12-01T01:48:35.544Z,93.23
2017-12-01T01:49:38.389Z,93.22
2017-12-01T01:50:41.243Z,92.76
2017-12-01T01:51:44.420Z,92.84
2017-12-01T01:52:47.407Z,92.87
2017-12-01T01:53:50.361Z,92.87
2017-12-01T01:54:53.285Z,92.71
2017-12-01T01:55:56.228Z,92.90
2017-12-01T01:56:59.128Z,92.80
2017-12-01T01:58:02.717Z,93.08
2017-12-01T01:59:05.626Z,93.32
2017-12-01T02:00:08.546Z,93.42
2017-12-01T02:01:11.556Z,93.38
2017-12-01T02:02:16.390Z,93.36
2017-12-01T02:03:19.499Z,93.44
2017-12-01T02:04:23.150Z,92.95
2017-12-01T02:05:26.082Z,92.48
2017-12-01T02:06:29.092Z,92.53
2017-12-01T02:07:32.001Z,92.34
2017-12-01T02:08:34.930Z,92.51
2017-12-01T02:09:37.851Z,92.87
2017-12-01T02:10:41.064Z,92.99
2017-12-01T02:11:44.009Z,93.31
2017-12-01T02:12:46.914Z,93.48
2017-12-01T02:13:49.793Z,93.48
2017-12-01T02:14:52.653Z,93.62
2017-12-01T02:15:55.499Z,93.32
2017-12-01T02:16:58.641Z,93.14
2017-12-01T02:18:03.080Z,93.16
2017-12-01T02:19:06.011Z,93.19
2017-12-01T02:20:08.896Z,93.34
2017-12-01T02:21:14.577Z,93.44
2017-12-01T02:22:17.414Z,93.08
2017-12-01T02:23:20.638Z,92.75
2017-12-01T02:24:23.545Z,92.42
2017-12-01T02:25:26.444Z,92.29
2017-12-01T02:26:29.352Z,92.87
2017-12-01T02:27:32.302Z,93.29
2017-12-01T02:28:35.234Z,93.14
2017-12-01T02:29:38.456Z,92.89
2017-12-01T02:30:41.385Z,92.97
2017-12-01T02:31:44.361Z,92.95
2017-12-01T02:32:47.288Z,93.21
2017-12-01T02:33:50.308Z,93.02
2017-12-01T02:34:53.264Z,92.97
2017-12-01T02:35:56.200Z,93.24
2017-12-01T02:36:59.101Z,93.35
2017-12-01T02:38:02.299Z,93.18
2017-12-01T02:39:05.463Z,92.34
2017-12-01T02:40:08.533Z,92.09
2017-12-01T02:41:11.663Z,91.97
2017-12-01T02:42:14.607Z,91.73
2017-12-01T02:43:17.508Z,92.59
2017-12-01T02:44:20.562Z,92.58
2017-12-01T02:45:23.489Z,92.75
2017-12-01T02:46:26.441Z,92.95
2017-12-01T02:47:29.815Z,92.80
2017-12-01T02:48:32.716Z,92.62
2017-12-01T02:49:35.682Z,92.89
2017-12-01T02:50:38.587Z,92.85
2017-12-01T02:51:41.591Z,93.05
2017-12-01T02:52:44.542Z,93.48
2017-12-01T02:53:47.746Z,93.69
2017-12-01T02:54:50.690Z,93.73
2017-12-01T02:55:53.612Z,93.93
2017-12-01T02:56:56.505Z,94.05
2017-12-01T02:57:59.610Z,93.87
2017-12-01T02:59:02.498Z,93.73
2017-12-01T03:00:05.721Z,93.74
2017-12-01T03:01:08.602Z,94.00
2017-12-01T03:02:11.544Z,94.17
2017-12-01T03:03:14.476Z,94.07
2017-12-01T03:04:17.394Z,93.96
2017-12-01T03:05:20.329Z,94.17
2017-12-01T03:06:23.531Z,94.45
2017-12-01T03:07:26.452Z,94.12
2017-12-01T03:08:29.502Z,94.46
2017-12-01T03:09:32.521Z,94.70
2017-12-01T03:10:35.649Z,94.55
2017-12-01T03:11:38.636Z,94.04
2017-12-01T03:12:41.845Z,93.60
2017-12-01T03:13:44.765Z,93.98
2017-12-01T03:14:47.703Z,94.25
2017-12-01T03:15:50.685Z,94.60
2017-12-01T03:16:53.645Z,94.73
2017-12-01T03:17:56.598Z,94.33
2017-12-01T03:18:59.959Z,93.98
2017-12-01T03:20:03.092Z,93.89
2017-12-01T03:21:06.277Z,94.40
2017-12-01T03:22:09.278Z,94.46
2017-12-01T03:23:12.259Z,94.56
2017-12-01T03:24:15.264Z,94.04
2017-12-01T03:25:18.442Z,93.89
2017-12-01T03:26:21.406Z,93.93
2017-12-01T03:27:24.342Z,93.66
2017-12-01T03:28:27.317Z,93.56
2017-12-01T03:29:30.244Z,93.43
2017-12-01T03:30:33.186Z,93.54
2017-12-01T03:31:36.408Z,93.43
2017-12-01T03:32:39.375Z,93.39
2017-12-01T03:33:42.317Z,93.32
2017-12-01T03:34:45.317Z,93.94
2017-12-01T03:35:48.311Z,93.84
2017-12-01T03:36:51.231Z,93.42
2017-12-01T03:37:54.401Z,93.36
2017-12-01T03:38:57.251Z,93.27
2017-12-01T03:40:00.209Z,93.42
2017-12-01T03:41:03.162Z,93.42
2017-12-01T03:42:06.141Z,93.90
2017-12-01T03:43:09.131Z,93.63
2017-12-01T03:44:12.413Z,93.35
2017-12-01T03:45:15.560Z,93.27
2017-12-01T03:46:18.861Z,92.86
2017-12-01T03:47:21.977Z,93.02
2017-12-01T03:48:25.119Z,92.80
2017-12-01T03:49:28.103Z,92.79
2017-12-01T03:50:31.315Z,92.96
2017-12-01T03:51:34.225Z,92.74
2017-12-01T03:52:37.173Z,93.11
2017-12-01T03:53:40.102Z,93.57
2017-12-01T03:54:43.043Z,93.99
2017-12-01T03:55:45.980Z,94.22
2017-12-01T03:56:49.260Z,94.36
2017-12-01T03:57:52.178Z,94.38
2017-12-01T03:58:55.102Z,94.42
2017-12-01T03:59:58.087Z,94.45
2017-12-01T04:01:01.123Z,94.04
2017-12-01T04:02:04.062Z,93.96
2017-12-01T04:03:07.296Z,94.04
2017-12-01T04:04:10.252Z,93.87
2017-12-01T04:05:16.701Z,93.92
2017-12-01T04:06:19.712Z,93.88
2017-12-01T04:07:22.857Z,94.21
2017-12-01T04:08:25.886Z,94.37
2017-12-01T04:09:28.935Z,94.39
2017-12-01T04:10:31.918Z,94.32
2017-12-01T04:11:34.845Z,94.28
2017-12-01T04:12:37.710Z,93.91
2017-12-01T04:13:40.939Z,93.57
2017-12-01T04:14:44.206Z,93.69
2017-12-01T04:15:47.426Z,93.85
2017-12-01T04:16:50.385Z,94.03
2017-12-01T04:17:53.325Z,94.31
2017-12-01T04:18:56.252Z,94.43
2017-12-01T04:19:59.152Z,94.56
2017-12-01T04:21:02.100Z,94.63
2017-12-01T04:22:05.321Z,94.63
2017-12-01T04:23:08.280Z,94.67
2017-12-01T04:24:11.226Z,94.52
2017-12-01T04:25:14.206Z,94.56
2017-12-01T04:26:17.162Z,94.64
2017-12-01T04:27:20.174Z,94.70
2017-12-01T04:28:23.348Z,94.64
2017-12-01T04:29:26.266Z,94.58
2017-12-01T04:30:30.197Z,94.36
2017-12-01T04:31:33.345Z,93.90
2017-12-01T04:32:36.557Z,93.87
2017-12-01T04:33:39.524Z,93.91
2017-12-01T04:34:42.472Z,94.12
2017-12-01T04:35:45.433Z,94.41
2017-12-01T04:36:48.349Z,94.60
2017-12-01T04:37:51.351Z,94.68
2017-12-01T04:38:54.275Z,94.49
2017-12-01T04:39:57.480Z,94.15
2017-12-01T04:41:00.445Z,93.97
2017-12-01T04:42:03.477Z,94.06
2017-12-01T04:43:06.404Z,93.98
2017-12-01T04:44:09.469Z,93.71
2017-12-01T04:45:12.449Z,93.63
2017-12-01T04:46:15.722Z,93.42
2017-12-01T04:47:18.710Z,93.52
2017-12-01T04:48:21.701Z,93.34
2017-12-01T04:49:24.875Z,93.37
2017-12-01T04:50:27.933Z,93.22
2017-12-01T04:51:31.200Z,93.02
2017-12-01T04:52:34.212Z,92.77
2017-12-01T04:53:37.054Z,92.69
2017-12-01T04:54:39.908Z,92.70
2017-12-01T04:55:42.729Z,92.89
2017-12-01T04:56:45.563Z,93.30
2017-12-01T04:57:48.680Z,93.50
2017-12-01T04:58:52.553Z,93.51
2017-12-01T04:59:55.476Z,93.70
2017-12-01T05:00:58.414Z,94.00
2017-12-01T05:02:01.378Z,93.75
2017-12-01T05:03:04.306Z,93.91
2017-12-01T05:04:07.267Z,93.57
2017-12-01T05:05:10.178Z,93.81
2017-12-01T05:06:13.166Z,94.02
2017-12-01T05:07:16.143Z,94.00
2017-12-01T05:08:19.077Z,94.09
2017-12-01T05:09:22.610Z,94.11
2017-12-01T05:10:25.548Z,94.21
2017-12-01T05:11:28.481Z,94.28
2017-12-01T05:12:31.459Z,94.31
2017-12-01T05:13:34.401Z,94.34
2017-12-01T05:14:37.429Z,94.20
2017-12-01T05:15:40.605Z,94.03
2017-12-01T05:16:43.532Z,93.93
2017-12-01T05:17:46.449Z,93.78
2017-12-01T05:18:49.502Z,93.67
2017-12-01T05:19:52.428Z,93.90
2017-12-01T05:20:55.463Z,93.89
2017-12-01T05:21:58.718Z,94.18
2017-12-01T05:23:01.630Z,94.38
2017-12-01T05:24:04.656Z,94.37
2017-12-01T05:25:07.671Z,94.33
2017-12-01T05:26:10.646Z,94.39
2017-12-01T05:27:13.604Z,94.46
2017-12-01T05:28:19.838Z,93.99
2017-12-01T05:29:22.698Z,93.72
2017-12-01T05:30:25.535Z,93.58
2017-12-01T05:31:28.484Z,93.84
2017-12-01T05:32:31.441Z,94.02
2017-12-01T05:33:34.420Z,93.85
2017-12-01T05:34:37.700Z,93.31
2017-12-01T05:35:40.702Z,93.38
2017-12-01T05:36:43.701Z,93.40
2017-12-01T05:37:46.917Z,93.53
2017-12-01T05:38:49.878Z,93.58
2017-12-01T05:39:52.884Z,93.41
2017-12-01T05:40:56.131Z,93.45
2017-12-01T05:41:59.116Z,93.71
2017-12-01T05:43:02.122Z,93.82
2017-12-01T05:44:05.069Z,93.67
2017-12-01T05:45:08.063Z,93.85
2017-12-01T05:46:10.991Z,94.13
2017-12-01T05:47:14.257Z,94.14
2017-12-01T05:48:17.253Z,94.00
2017-12-01T05:49:20.305Z,93.75
2017-12-01T05:50:23.318Z,93.80
2017-12-01T05:51:26.294Z,93.67
2017-12-01T05:52:29.339Z,93.71
2017-12-01T05:53:32.913Z,93.98
2017-12-01T05:54:35.811Z,94.06
2017-12-01T05:55:38.721Z,93.81
2017-12-01T05:56:41.570Z,93.69
2017-12-01T05:57:44.504Z,94.00
2017-12-01T05:58:47.448Z,93.70
2017-12-01T05:59:50.806Z,93.59
2017-12-01T06:00:53.707Z,93.54
2017-12-01T06:01:57.579Z,93.65
2017-12-01T06:03:00.830Z,93.82
2017-12-01T06:04:03.739Z,94.06
2017-12-01T06:05:06.711Z,94.02
2017-12-01T06:06:09.859Z,94.03
2017-12-01T06:07:12.771Z,94.39
2017-12-01T06:08:15.642Z,94.47
2017-12-01T06:09:18.581Z,94.29
2017-12-01T06:10:21.427Z,94.16
2017-12-01T06:11:24.397Z,93.97
2017-12-01T06:12:27.772Z,93.82
2017-12-01T06:13:30.676Z,93.69
2017-12-01T06:14:33.678Z,93.93
2017-12-01T06:15:36.618Z,93.89
2017-12-01T06:16:39.653Z,93.96
2017-12-01T06:17:42.599Z,93.91
2017-12-01T06:18:46.025Z,94.06
2017-12-01T06:19:49.030Z,93.95
2017-12-01T06:20:51.957Z,94.01
2017-12-01T06:21:54.915Z,93.87
2017-12-01T06:22:57.918Z,93.71
2017-12-01T06:24:00.884Z,93.88
2017-12-01T06:25:03.905Z,93.91
2017-12-01T06:26:06.942Z,94.16
2017-12-01T06:27:09.958Z,94.22
2017-12-01T06:28:12.951Z,94.46
2017-12-01T06:29:15.982Z,94.34
2017-12-01T06:30:18.993Z,94.21
2017-12-01T06:31:22.269Z,94.16
2017-12-01T06:32:25.246Z,94.24
2017-12-01T06:33:29.306Z,94.08
2017-12-01T06:34:32.325Z,94.21
2017-12-01T06:35:35.797Z,94.22
2017-12-01T06:36:38.789Z,94.15
2017-12-01T06:37:41.725Z,94.18
2017-12-01T06:38:44.667Z,94.10
2017-12-01T06:39:47.662Z,94.23
2017-12-01T06:40:51.213Z,94.20
2017-12-01T06:41:54.775Z,94.07
2017-12-01T06:42:58.591Z,93.81
2017-12-01T06:44:01.517Z,92.87
2017-12-01T06:45:04.529Z,92.37
2017-12-01T06:46:07.455Z,92.67
2017-12-01T06:47:10.316Z,93.04
2017-12-01T06:48:13.613Z,93.36
2017-12-01T06:49:16.480Z,93.20
2017-12-01T06:50:19.375Z,93.16
2017-12-01T06:51:22.308Z,93.37
2017-12-01T06:52:25.269Z,93.39
2017-12-01T06:53:28.245Z,93.19
2017-12-01T06:54:31.219Z,93.43
2017-12-01T06:55:34.234Z,93.11
2017-12-01T06:56:37.729Z,93.03
2017-12-01T06:57:40.966Z,93.22
2017-12-01T06:58:43.943Z,93.26
2017-12-01T06:59:47.277Z,92.94
2017-12-01T07:00:50.273Z,92.95
2017-12-01T07:01:53.284Z,93.26
2017-12-01T07:02:56.314Z,93.40
2017-12-01T07:03:59.307Z,93.58
2017-12-01T07:05:02.244Z,93.71
2017-12-01T07:06:05.863Z,93.88
2017-12-01T07:07:08.964Z,93.69
2017-12-01T07:08:11.969Z,93.32
2017-12-01T07:09:14.921Z,93.50
2017-12-01T07:10:17.971Z,93.43
2017-12-01T07:11:20.924Z,93.25
2017-12-01T07:12:25.660Z,93.21
2017-12-01T07:13:28.663Z,93.33
2017-12-01T07:14:31.715Z,93.30
2017-12-01T07:15:35.076Z,93.06
2017-12-01T07:16:38.034Z,93.06
2017-12-01T07:17:41.612Z,92.83
2017-12-01T07:18:45.402Z,93.04
2017-12-01T07:19:48.436Z,92.99
2017-12-01T07:20:51.853Z,92.85
2017-12-01T07:21:55.049Z,92.51
2017-12-01T07:22:57.994Z,92.55
2017-12-01T07:24:01.338Z,92.44
2017-12-01T07:25:04.751Z,92.91
2017-12-01T07:26:07.728Z,93.21
2017-12-01T07:27:11.944Z,93.11
2017-12-01T07:28:14.890Z,92.62
2017-12-01T07:29:17.882Z,92.18
2017-12-01T07:30:20.876Z,91.59
2017-12-01T07:31:23.861Z,92.07
2017-12-01T07:32:27.899Z,91.75
2017-12-01T07:33:30.861Z,91.88
2017-12-01T07:34:33.902Z,91.27
2017-12-01T07:35:36.860Z,91.41
2017-12-01T07:36:40.219Z,91.16
2017-12-01T07:37:43.289Z,90.77
2017-12-01T07:38:46.482Z,91.37
2017-12-01T07:39:49.643Z,91.38
2017-12-01T07:40:52.747Z,91.69
2017-12-01T07:41:55.821Z,92.20
2017-12-01T07:42:59.211Z,92.41
2017-12-01T07:44:02.346Z,92.25
2017-12-01T07:45:05.679Z,92.54
2017-12-01T07:46:08.709Z,92.27
2017-12-01T07:47:11.755Z,92.05
2017-12-01T07:48:14.795Z,91.97
2017-12-01T07:49:18.328Z,92.08
2017-12-01T07:50:21.499Z,92.47
2017-12-01T07:51:24.582Z,92.79
2017-12-01T07:52:27.675Z,92.86
2017-12-01T07:53:30.839Z,92.77
2017-12-01T07:54:34.033Z,91.95
2017-12-01T07:55:37.588Z,91.60
2017-12-01T07:56:40.788Z,91.73
2017-12-01T07:57:43.913Z,92.11
2017-12-01T07:58:47.030Z,91.72
2017-12-01T07:59:50.157Z,91.67
2017-12-01T08:00:53.324Z,91.59
2017-12-01T08:01:57.255Z,91.72
2017-12-01T08:03:02.472Z,91.56
2017-12-01T08:04:05.590Z,91.61
2017-12-01T08:05:08.744Z,91.62
2017-12-01T08:06:12.093Z,92.11
2017-12-01T08:07:19.084Z,92.27
2017-12-01T08:08:22.599Z,92.24
2017-12-01T08:09:25.707Z,92.16
2017-12-01T08:10:28.793Z,92.34
2017-12-01T08:11:32.256Z,92.16
2017-12-01T08:12:35.356Z,92.24
2017-12-01T08:13:38.524Z,91.87
2017-12-01T08:14:42.023Z,91.67
2017-12-01T08:15:45.191Z,91.77
2017-12-01T08:16:48.297Z,91.16
2017-12-01T08:17:52.509Z,90.92
2017-12-01T08:18:55.919Z,91.25
2017-12-01T08:19:59.076Z,91.01
2017-12-01T08:21:02.938Z,91.40
2017-12-01T08:22:06.229Z,91.09
2017-12-01T08:23:09.298Z,90.52
2017-12-01T08:24:12.411Z,90.33
2017-12-01T08:25:15.571Z,91.10
2017-12-01T08:26:18.633Z,91.36
2017-12-01T08:27:22.155Z,91.27
2017-12-01T08:28:25.214Z,91.11
2017-12-01T08:29:28.340Z,90.67
2017-12-01T08:30:31.447Z,90.30
2017-12-01T08:31:34.636Z,90.38
2017-12-01T08:32:37.756Z,90.72
2017-12-01T08:33:41.151Z,90.43
2017-12-01T08:34:44.130Z,90.60
2017-12-01T08:35:47.106Z,91.40
2017-12-01T08:36:50.033Z,91.63
2017-12-01T08:37:52.979Z,91.57
2017-12-01T08:38:55.957Z,91.58
2017-12-01T08:39:59.168Z,91.35
2017-12-01T08:41:02.275Z,91.42
2017-12-01T08:42:05.247Z,91.61
2017-12-01T08:43:08.208Z,92.00
2017-12-01T08:44:11.220Z,92.32
2017-12-01T08:45:14.360Z,92.27
2017-12-01T08:46:17.793Z,92.20
2017-12-01T08:47:20.762Z,92.03
2017-12-01T08:48:23.768Z,91.84
2017-12-01T08:49:27.033Z,91.70
2017-12-01T08:50:29.987Z,92.01
2017-12-01T08:51:33.272Z,92.09
2017-12-01T08:52:36.696Z,90.81
2017-12-01T08:53:39.670Z,90.10
2017-12-01T08:54:42.721Z,89.13
2017-12-01T08:55:45.725Z,89.04
2017-12-01T08:56:48.726Z,89.88
2017-12-01T08:57:51.761Z,90.50
2017-12-01T08:58:55.168Z,89.59
2017-12-01T08:59:58.316Z,89.42
2017-12-01T09:01:01.421Z,89.24
2017-12-01T09:02:04.629Z,89.18
2017-12-01T09:03:07.596Z,89.06
2017-12-01T09:04:10.570Z,88.40
2017-12-01T09:05:14.032Z,87.27
2017-12-01T09:06:17.073Z,86.67
2017-12-01T09:07:20.180Z,86.67
2017-12-01T09:08:23.154Z,87.27
2017-12-01T09:09:26.122Z,87.90
2017-12-01T09:10:29.377Z,87.89
2017-12-01T09:11:32.720Z,87.11
2017-12-01T09:12:35.801Z,87.26
2017-12-01T09:13:38.847Z,87.81
2017-12-01T09:14:41.837Z,86.77
2017-12-01T09:15:44.807Z,87.03
2017-12-01T09:16:47.744Z,87.17
2017-12-01T09:17:51.168Z,87.68
2017-12-01T09:18:55.061Z,86.97
2017-12-01T09:19:58.086Z,86.60
2017-12-01T09:21:01.094Z,87.02
2017-12-01T09:22:04.186Z,89.61
2017-12-01T09:23:07.243Z,90.28
2017-12-01T09:24:11.302Z,90.60
2017-12-01T09:25:14.656Z,90.28
2017-12-01T09:26:17.666Z,90.85
2017-12-01T09:27:20.718Z,90.61
2017-12-01T09:28:23.855Z,90.55
2017-12-01T09:29:26.802Z,90.49
2017-12-01T09:30:30.182Z,89.80
2017-12-01T09:31:33.463Z,89.78
2017-12-01T09:32:36.506Z,89.97
2017-12-01T09:33:39.473Z,89.24
2017-12-01T09:34:42.507Z,89.13
2017-12-01T09:35:45.548Z,89.49
2017-12-01T09:36:48.853Z,89.87
2017-12-01T09:37:51.850Z,89.80
2017-12-01T09:38:54.913Z,88.33
2017-12-01T09:39:57.818Z,88.36
2017-12-01T09:41:00.691Z,87.48
2017-12-01T09:42:03.946Z,86.63
2017-12-01T09:43:08.310Z,86.78
2017-12-01T09:44:13.877Z,86.63
2017-12-01T09:45:16.801Z,86.11
2017-12-01T09:46:19.700Z,86.24
2017-12-01T09:47:22.764Z,86.84
2017-12-01T09:48:25.771Z,87.65
2017-12-01T09:49:29.024Z,87.98
2017-12-01T09:50:32.028Z,86.87
2017-12-01T09:51:34.994Z,86.26
2017-12-01T09:52:37.988Z,87.54
2017-12-01T09:53:41.040Z,87.17
2017-12-01T09:54:44.013Z,85.22
2017-12-01T09:55:47.300Z,87.32
2017-12-01T09:56:50.280Z,87.94
2017-12-01T09:57:53.302Z,87.65
2017-12-01T09:58:56.320Z,87.58
2017-12-01T09:59:59.286Z,87.76
2017-12-01T10:01:02.273Z,87.73
2017-12-01T10:02:05.246Z,87.11
2017-12-01T10:03:08.827Z,85.90
2017-12-01T10:04:11.831Z,84.80
2017-12-01T10:05:14.812Z,83.65
2017-12-01T10:06:17.841Z,85.52
2017-12-01T10:07:20.818Z,88.21
2017-12-01T10:08:23.804Z,89.34
2017-12-01T10:09:26.819Z,89.00
2017-12-01T10:10:29.938Z,89.15
2017-12-01T10:11:32.945Z,87.63
2017-12-01T10:12:36.251Z,88.21
2017-12-01T10:13:39.263Z,87.40
2017-12-01T10:14:42.288Z,87.54
2017-12-01T10:15:45.393Z,87.27
2017-12-01T10:16:48.348Z,88.18
2017-12-01T10:17:51.660Z,88.14
2017-12-01T10:18:55.398Z,87.57
2017-12-01T10:19:59.533Z,88.02
2017-12-01T10:21:02.553Z,87.03
2017-12-01T10:22:05.596Z,87.27
2017-12-01T10:23:08.601Z,86.26
2017-12-01T10:24:11.547Z,85.79
2017-12-01T10:25:15.004Z,86.85
2017-12-01T10:26:18.031Z,87.11
2017-12-01T10:27:21.101Z,86.36
2017-12-01T10:28:24.129Z,87.81
2017-12-01T10:29:27.140Z,87.21
2017-12-01T10:30:30.549Z,86.81
2017-12-01T10:31:33.537Z,85.96
2017-12-01T10:32:36.652Z,86.18
2017-12-01T10:33:39.732Z,86.94
2017-12-01T10:34:42.750Z,86.58
2017-12-01T10:35:45.825Z,86.87
2017-12-01T10:36:49.193Z,86.21
2017-12-01T10:37:52.250Z,86.48
2017-12-01T10:38:55.258Z,86.12
2017-12-01T10:39:59.239Z,85.81
2017-12-01T10:41:02.297Z,85.19
2017-12-01T10:42:05.299Z,84.85
2017-12-01T10:43:08.579Z,84.37
2017-12-01T10:44:11.617Z,85.66
2017-12-01T10:45:23.206Z,85.20
2017-12-01T10:46:26.250Z,85.42
2017-12-01T10:47:29.208Z,86.59
2017-12-01T10:48:32.248Z,84.82
2017-12-01T10:49:35.580Z,86.66
2017-12-01T10:50:38.528Z,86.13
2017-12-01T10:51:41.474Z,85.19
2017-12-01T10:52:44.446Z,85.44
2017-12-01T10:53:47.438Z,86.28
2017-12-01T10:54:50.450Z,86.55
2017-12-01T10:55:53.808Z,87.04
2017-12-01T10:56:56.772Z,86.47
2017-12-01T10:57:59.772Z,86.07
2017-12-01T10:59:02.737Z,85.26
2017-12-01T11:00:05.651Z,84.15
2017-12-01T11:01:08.683Z,85.99
2017-12-01T11:02:12.137Z,85.98
2017-12-01T11:03:15.290Z,84.44
2017-12-01T11:04:18.692Z,85.90
2017-12-01T11:05:21.703Z,86.57
2017-12-01T11:06:25.211Z,86.89
2017-12-01T11:07:28.316Z,85.78
2017-12-01T11:08:31.554Z,86.18
2017-12-01T11:09:34.575Z,86.05
2017-12-01T11:10:37.550Z,85.53
2017-12-01T11:11:40.467Z,85.83
2017-12-01T11:12:43.426Z,86.14
2017-12-01T11:13:46.400Z,87.95
2017-12-01T11:14:49.687Z,87.31
2017-12-01T11:15:52.511Z,86.90
2017-12-01T11:16:55.396Z,86.86
2017-12-01T11:17:58.474Z,86.79
2017-12-01T11:19:01.516Z,85.97
2017-12-01T11:20:04.521Z,86.53
2017-12-01T11:21:08.020Z,85.99
2017-12-01T11:22:11.014Z,86.42
2017-12-01T11:23:13.970Z,86.49
2017-12-01T11:24:17.037Z,86.57
2017-12-01T11:25:20.016Z,86.15
2017-12-01T11:26:22.933Z,86.18
2017-12-01T11:27:26.224Z,86.28
2017-12-01T11:28:29.202Z,86.16
2017-12-01T11:29:32.162Z,86.46
2017-12-01T11:30:35.104Z,87.74
2017-12-01T11:31:38.135Z,86.60
2017-12-01T11:32:41.148Z,86.63
2017-12-01T11:33:44.572Z,87.15
2017-12-01T11:34:47.568Z,88.04
2017-12-01T11:35:50.926Z,89.39
2017-12-01T11:36:53.903Z,88.76
2017-12-01T11:37:56.860Z,88.25
2017-12-01T11:38:59.843Z,88.45
2017-12-01T11:40:03.949Z,88.21
2017-12-01T11:41:07.422Z,88.22
2017-12-01T11:42:11.004Z,88.37
2017-12-01T11:43:13.984Z,87.67
2017-12-01T11:44:16.942Z,87.13
2017-12-01T11:45:20.186Z,87.86
2017-12-01T11:46:23.544Z,87.88
2017-12-01T11:47:26.493Z,86.65
2017-12-01T11:48:29.584Z,85.86
2017-12-01T11:49:32.531Z,87.07
2017-12-01T11:50:35.686Z,87.33
2017-12-01T11:51:38.600Z,86.89
2017-12-01T11:52:44.088Z,88.30
2017-12-01T11:53:47.422Z,87.29
2017-12-01T11:54:50.653Z,87.24
2017-12-01T11:55:54.036Z,86.49
2017-12-01T11:56:57.026Z,86.13
2017-12-01T11:57:59.992Z,86.34
2017-12-01T11:59:03.889Z,86.23
2017-12-01T12:00:06.947Z,85.78
2017-12-01T12:01:09.944Z,85.60
2017-12-01T12:02:12.773Z,86.04
2017-12-01T12:03:17.477Z,85.28
2017-12-01T12:04:20.357Z,84.80
2017-12-01T12:05:23.166Z,85.35
2017-12-01T12:06:25.994Z,84.94
2017-12-01T12:07:28.917Z,84.10
2017-12-01T12:08:31.875Z,84.90
2017-12-01T12:09:34.975Z,84.75
2017-12-01T12:10:38.347Z,84.56
2017-12-01T12:11:41.300Z,83.02
2017-12-01T12:12:44.292Z,82.39
2017-12-01T12:13:47.243Z,82.02
2017-12-01T12:14:50.221Z,82.57
2017-12-01T12:15:53.344Z,82.51
2017-12-01T12:16:56.716Z,83.39
2017-12-01T12:17:59.604Z,83.42
2017-12-01T12:19:02.673Z,83.44
2017-12-01T12:20:05.614Z,85.93
2017-12-01T12:21:08.498Z,85.27
2017-12-01T12:22:11.422Z,85.07
2017-12-01T12:23:14.697Z,84.25
2017-12-01T12:24:17.678Z,83.57
2017-12-01T12:25:20.731Z,84.29
2017-12-01T12:26:23.723Z,84.75
2017-12-01T12:27:27.524Z,86.59
2017-12-01T12:28:30.425Z,87.66
2017-12-01T12:29:33.649Z,87.11
2017-12-01T12:30:36.602Z,84.63
2017-12-01T12:31:39.573Z,84.97
2017-12-01T12:32:42.552Z,85.16
2017-12-01T12:33:45.502Z,84.92
2017-12-01T12:34:48.460Z,84.04
2017-12-01T12:35:51.718Z,84.38
2017-12-01T12:36:54.664Z,84.87
2017-12-01T12:37:57.658Z,86.20
2017-12-01T12:39:00.562Z,86.73
2017-12-01T12:40:03.568Z,86.71
2017-12-01T12:41:06.466Z,86.85
2017-12-01T12:42:09.834Z,86.14
2017-12-01T12:43:12.763Z,85.64
2017-12-01T12:44:15.852Z,85.76
2017-12-01T12:45:19.133Z,86.34
2017-12-01T12:46:22.320Z,84.90
2017-12-01T12:47:25.464Z,85.05
2017-12-01T12:48:28.954Z,86.21
2017-12-01T12:49:32.583Z,86.18
2017-12-01T12:50:35.579Z,85.22
2017-12-01T12:51:38.629Z,85.18
2017-12-01T12:52:41.581Z,85.21
2017-12-01T12:53:44.632Z,85.03
2017-12-01T12:54:48.073Z,85.48
2017-12-01T12:55:51.083Z,83.92
2017-12-01T12:56:54.151Z,83.75
2017-12-01T12:57:57.290Z,84.13
2017-12-01T12:59:00.326Z,84.36
2017-12-01T13:00:03.258Z,84.60
2017-12-01T13:01:06.523Z,84.32
2017-12-01T13:02:11.894Z,84.21
2017-12-01T13:03:14.902Z,85.52
2017-12-01T13:04:18.004Z,84.89
2017-12-01T13:05:20.947Z,85.61
2017-12-01T13:06:23.977Z,85.48
2017-12-01T13:07:27.246Z,85.75
2017-12-01T13:08:30.125Z,85.90
2017-12-01T13:09:33.236Z,86.47
2017-12-01T13:10:36.181Z,86.57
2017-12-01T13:11:39.112Z,86.03
2017-12-01T13:12:42.142Z,85.70
2017-12-01T13:13:45.522Z,85.90
2017-12-01T13:14:48.654Z,85.44
2017-12-01T13:15:51.671Z,84.63
2017-12-01T13:16:54.661Z,85.59
2017-12-01T13:17:57.598Z,86.25
2017-12-01T13:19:00.595Z,86.41
2017-12-01T13:20:03.896Z,85.39
2017-12-01T13:21:07.232Z,84.97
2017-12-01T13:22:11.338Z,85.34
2017-12-01T13:23:14.328Z,84.21
2017-12-01T13:24:18.396Z,84.59
2017-12-01T13:25:21.300Z,84.85
2017-12-01T13:26:24.582Z,84.83
2017-12-01T13:27:27.979Z,86.13
2017-12-01T13:28:30.961Z,86.65
2017-12-01T13:29:33.859Z,86.89
2017-12-01T13:30:36.846Z,86.11
2017-12-01T13:31:39.821Z,85.94
2017-12-01T13:32:43.387Z,85.37